sensor_id;sensor_type;location;lat;lon;timestamp;pressure;altitude;pressure_sealevel;temperature;humidity
51829;BME280;37881;48.024;8.774;2022-08-21T00:01:42;94159.78;;;12.54;100.00
51829;BME280;37881;48.024;8.774;2022-08-21T00:04:09;94160.69;;;12.47;100.00
51829;BME280;37881;48.024;8.774;2022-08-21T00:06:40;94160.69;;;12.47;100.00
51829;BME280;37881;48.024;8.774;2022-08-21T00:09:08;94156.38;;;12.46;100.00
51829;BME280;37881;48.024;8.774;2022-08-21T00:11:36;94152.94;;;12.42;100.00
51829;BME280;37881;48.024;8.774;2022-08-21T00:14:05;94145.78;;;12.45;100.00
51829;BME280;37881;48.024;8.774;2022-08-21T00:16:32;94159.28;;;12.59;100.00
51829;BME280;37881;48.024;8.774;2022-08-21T00:18:59;94153.22;;;12.48;100.00
51829;BME280;37881;48.024;8.774;2022-08-21T00:21:26;94146.56;;;12.45;100.00
51829;BME280;37881;48.024;8.774;2022-08-21T00:23:52;94143.81;;;12.45;100.00
51829;BME280;37881;48.024;8.774;2022-08-21T00:26:19;94147.84;;;12.41;100.00
51829;BME280;37881;48.024;8.774;2022-08-21T00:28:46;94143.34;;;12.50;100.00
51829;BME280;37881;48.024;8.774;2022-08-21T00:31:16;94138.38;;;12.42;100.00
51829;BME280;37881;48.024;8.774;2022-08-21T00:33:43;94141.84;;;12.46;100.00
51829;BME280;37881;48.024;8.774;2022-08-21T00:36:09;94137.53;;;12.65;100.00
51829;BME280;37881;48.024;8.774;2022-08-21T00:38:37;94148.22;;;12.63;100.00
51829;BME280;37881;48.024;8.774;2022-08-21T00:41:06;94134.50;;;12.59;100.00
51829;BME280;37881;48.024;8.774;2022-08-21T00:43:54;94137.41;;;12.72;100.00
51829;BME280;37881;48.024;8.774;2022-08-21T00:46:21;94135.09;;;12.70;100.00
51829;BME280;37881;48.024;8.774;2022-08-21T00:48:53;94141.22;;;12.58;100.00
51829;BME280;37881;48.024;8.774;2022-08-21T00:51:35;94139.50;;;12.44;100.00
51829;BME280;37881;48.024;8.774;2022-08-21T00:54:05;94142.81;;;12.55;100.00
51829;BME280;37881;48.024;8.774;2022-08-21T00:56:47;94136.13;;;12.56;100.00
51829;BME280;37881;48.024;8.774;2022-08-21T00:59:18;94139.88;;;12.46;100.00
51829;BME280;37881;48.024;8.774;2022-08-21T01:01:46;94131.25;;;12.44;100.00
51829;BME280;37881;48.024;8.774;2022-08-21T01:04:13;94135.00;;;12.54;100.00
51829;BME280;37881;48.024;8.774;2022-08-21T01:06:39;94136.63;;;12.51;100.00
51829;BME280;37881;48.024;8.774;2022-08-21T01:09:06;94128.72;;;12.53;100.00
51829;BME280;37881;48.024;8.774;2022-08-21T01:11:33;94120.44;;;12.53;100.00
51829;BME280;37881;48.024;8.774;2022-08-21T01:14:00;94129.56;;;12.50;100.00
51829;BME280;37881;48.024;8.774;2022-08-21T01:16:28;94118.25;;;12.45;100.00
51829;BME280;37881;48.024;8.774;2022-08-21T01:18:55;94115.38;;;12.52;100.00
51829;BME280;37881;48.024;8.774;2022-08-21T01:21:24;94111.47;;;12.49;100.00
51829;BME280;37881;48.024;8.774;2022-08-21T01:23:55;94105.22;;;12.49;100.00
51829;BME280;37881;48.024;8.774;2022-08-21T01:26:25;94108.31;;;12.51;100.00
51829;BME280;37881;48.024;8.774;2022-08-21T01:29:19;94106.91;;;12.43;100.00
51829;BME280;37881;48.024;8.774;2022-08-21T01:31:49;94109.69;;;12.19;100.00
51829;BME280;37881;48.024;8.774;2022-08-21T01:34:16;94105.06;;;12.36;100.00
51829;BME280;37881;48.024;8.774;2022-08-21T01:36:45;65374.31;;;-148.33;100.00
51829;BME280;37881;48.024;8.774;2022-08-21T01:39:13;65374.31;;;-148.33;100.00
51829;BME280;37881;48.024;8.774;2022-08-21T01:41:41;65374.31;;;-148.33;100.00
51829;BME280;37881;48.024;8.774;2022-08-21T01:44:08;65374.31;;;-148.33;100.00
51829;BME280;37881;48.024;8.774;2022-08-21T01:46:34;65374.31;;;-148.33;100.00
51829;BME280;37881;48.024;8.774;2022-08-21T01:49:02;65374.31;;;-148.33;100.00
51829;BME280;37881;48.024;8.774;2022-08-21T01:51:29;65374.31;;;-148.33;100.00
51829;BME280;37881;48.024;8.774;2022-08-21T01:53:56;65374.31;;;-148.33;100.00
51829;BME280;37881;48.024;8.774;2022-08-21T01:56:24;65374.31;;;-148.33;100.00
51829;BME280;37881;48.024;8.774;2022-08-21T01:58:51;65374.31;;;-148.33;100.00
51829;BME280;37881;48.024;8.774;2022-08-21T02:01:17;65374.31;;;-148.33;100.00
51829;BME280;37881;48.024;8.774;2022-08-21T02:03:44;65374.31;;;-148.33;100.00
51829;BME280;37881;48.024;8.774;2022-08-21T02:06:14;65374.31;;;-148.33;100.00
51829;BME280;37881;48.024;8.774;2022-08-21T02:08:45;65374.31;;;-148.33;100.00
51829;BME280;37881;48.024;8.774;2022-08-21T02:11:11;65374.31;;;-148.33;100.00
51829;BME280;37881;48.024;8.774;2022-08-21T02:13:38;65374.31;;;-148.33;100.00
51829;BME280;37881;48.024;8.774;2022-08-21T02:16:05;65374.31;;;-148.33;100.00
51829;BME280;37881;48.024;8.774;2022-08-21T02:18:33;65374.31;;;-148.33;100.00
51829;BME280;37881;48.024;8.774;2022-08-21T02:21:01;65374.31;;;-148.33;100.00
51829;BME280;37881;48.024;8.774;2022-08-21T02:23:28;65374.31;;;-148.33;100.00
51829;BME280;37881;48.024;8.774;2022-08-21T02:25:57;65374.31;;;-148.33;100.00
51829;BME280;37881;48.024;8.774;2022-08-21T02:28:25;65374.31;;;-148.33;100.00
51829;BME280;37881;48.024;8.774;2022-08-21T02:30:54;65374.31;;;-148.33;100.00
51829;BME280;37881;48.024;8.774;2022-08-21T02:33:22;65374.31;;;-148.33;100.00
51829;BME280;37881;48.024;8.774;2022-08-21T02:35:49;65374.31;;;-148.33;100.00
51829;BME280;37881;48.024;8.774;2022-08-21T02:38:20;65374.31;;;-148.33;100.00
51829;BME280;37881;48.024;8.774;2022-08-21T02:40:49;65374.31;;;-148.33;100.00
51829;BME280;37881;48.024;8.774;2022-08-21T02:43:19;65374.31;;;-148.33;100.00
51829;BME280;37881;48.024;8.774;2022-08-21T02:45:46;65374.31;;;-148.33;100.00
51829;BME280;37881;48.024;8.774;2022-08-21T02:48:27;65374.31;;;-148.33;100.00
51829;BME280;37881;48.024;8.774;2022-08-21T02:51:00;65374.31;;;-148.33;100.00
51829;BME280;37881;48.024;8.774;2022-08-21T02:53:28;65374.31;;;-148.33;100.00
51829;BME280;37881;48.024;8.774;2022-08-21T02:55:57;65374.31;;;-148.33;100.00
51829;BME280;37881;48.024;8.774;2022-08-21T02:58:28;65374.31;;;-148.33;100.00
51829;BME280;37881;48.024;8.774;2022-08-21T03:00:55;65374.31;;;-148.33;100.00
51829;BME280;37881;48.024;8.774;2022-08-21T03:03:22;65374.31;;;-148.33;100.00
51829;BME280;37881;48.024;8.774;2022-08-21T03:05:49;65374.31;;;-148.33;100.00
51829;BME280;37881;48.024;8.774;2022-08-21T03:08:17;65374.31;;;-148.33;100.00
51829;BME280;37881;48.024;8.774;2022-08-21T03:10:47;65374.31;;;-148.33;100.00
51829;BME280;37881;48.024;8.774;2022-08-21T03:13:15;65374.31;;;-148.33;100.00
51829;BME280;37881;48.024;8.774;2022-08-21T03:15:42;65374.31;;;-148.33;100.00
51829;BME280;37881;48.024;8.774;2022-08-21T03:18:09;65374.31;;;-148.33;100.00
51829;BME280;37881;48.024;8.774;2022-08-21T03:20:39;65374.31;;;-148.33;100.00
51829;BME280;37881;48.024;8.774;2022-08-21T03:23:06;65374.31;;;-148.33;100.00
51829;BME280;37881;48.024;8.774;2022-08-21T03:25:42;65374.31;;;-148.33;100.00
51829;BME280;37881;48.024;8.774;2022-08-21T03:28:11;65374.31;;;-148.33;100.00
51829;BME280;37881;48.024;8.774;2022-08-21T03:30:44;65374.31;;;-148.33;100.00
51829;BME280;37881;48.024;8.774;2022-08-21T03:33:12;65374.31;;;-148.33;100.00
51829;BME280;37881;48.024;8.774;2022-08-21T03:35:53;65374.31;;;-148.33;100.00
51829;BME280;37881;48.024;8.774;2022-08-21T03:38:22;65374.31;;;-148.33;100.00
51829;BME280;37881;48.024;8.774;2022-08-21T03:40:52;65374.31;;;-148.33;100.00
51829;BME280;37881;48.024;8.774;2022-08-21T03:43:19;65374.31;;;-148.33;100.00
51829;BME280;37881;48.024;8.774;2022-08-21T03:45:46;65374.31;;;-148.33;100.00
51829;BME280;37881;48.024;8.774;2022-08-21T03:48:13;65374.31;;;-148.33;100.00
51829;BME280;37881;48.024;8.774;2022-08-21T03:50:42;65374.31;;;-148.33;100.00
51829;BME280;37881;48.024;8.774;2022-08-21T03:53:11;65374.31;;;-148.33;100.00
51829;BME280;37881;48.024;8.774;2022-08-21T03:55:47;65374.31;;;-148.33;100.00
51829;BME280;37881;48.024;8.774;2022-08-21T03:58:16;65374.31;;;-148.33;100.00
51829;BME280;37881;48.024;8.774;2022-08-21T04:00:45;65374.31;;;-148.33;100.00
51829;BME280;37881;48.024;8.774;2022-08-21T04:03:12;65374.31;;;-148.33;100.00
51829;BME280;37881;48.024;8.774;2022-08-21T04:05:38;65374.31;;;-148.33;100.00
51829;BME280;37881;48.024;8.774;2022-08-21T04:08:05;65374.31;;;-148.33;100.00
51829;BME280;37881;48.024;8.774;2022-08-21T04:10:34;65374.31;;;-148.33;100.00
51829;BME280;37881;48.024;8.774;2022-08-21T04:13:01;65374.31;;;-148.33;100.00
51829;BME280;37881;48.024;8.774;2022-08-21T04:15:28;65374.31;;;-148.33;100.00
51829;BME280;37881;48.024;8.774;2022-08-21T04:17:55;65374.31;;;-148.33;100.00
51829;BME280;37881;48.024;8.774;2022-08-21T04:20:22;65374.31;;;-148.33;100.00
51829;BME280;37881;48.024;8.774;2022-08-21T04:22:50;65374.31;;;-148.33;100.00
51829;BME280;37881;48.024;8.774;2022-08-21T04:25:19;65374.31;;;-148.33;100.00
51829;BME280;37881;48.024;8.774;2022-08-21T04:27:46;65374.31;;;-148.33;100.00
51829;BME280;37881;48.024;8.774;2022-08-21T04:30:15;65374.31;;;-148.33;100.00
51829;BME280;37881;48.024;8.774;2022-08-21T04:32:44;65374.31;;;-148.33;100.00
51829;BME280;37881;48.024;8.774;2022-08-21T04:35:11;65374.31;;;-148.33;100.00
51829;BME280;37881;48.024;8.774;2022-08-21T04:37:38;65374.31;;;-148.33;100.00
51829;BME280;37881;48.024;8.774;2022-08-21T04:40:09;65374.31;;;-148.33;100.00
51829;BME280;37881;48.024;8.774;2022-08-21T04:42:54;65374.31;;;-148.33;100.00
51829;BME280;37881;48.024;8.774;2022-08-21T04:45:28;65374.31;;;-148.33;100.00
51829;BME280;37881;48.024;8.774;2022-08-21T04:47:57;65374.31;;;-148.33;100.00
51829;BME280;37881;48.024;8.774;2022-08-21T04:50:34;65374.31;;;-148.33;100.00
51829;BME280;37881;48.024;8.774;2022-08-21T04:53:03;65374.31;;;-148.33;100.00
51829;BME280;37881;48.024;8.774;2022-08-21T04:55:30;65374.31;;;-148.33;100.00
51829;BME280;37881;48.024;8.774;2022-08-21T04:57:57;65374.31;;;-148.33;100.00
51829;BME280;37881;48.024;8.774;2022-08-21T05:00:25;65374.31;;;-148.33;100.00
51829;BME280;37881;48.024;8.774;2022-08-21T05:02:53;65374.31;;;-148.33;100.00
51829;BME280;37881;48.024;8.774;2022-08-21T05:05:23;65374.31;;;-148.33;100.00
51829;BME280;37881;48.024;8.774;2022-08-21T05:07:51;65374.31;;;-148.33;100.00
51829;BME280;37881;48.024;8.774;2022-08-21T05:10:19;65374.31;;;-148.33;100.00
51829;BME280;37881;48.024;8.774;2022-08-21T05:12:46;65374.31;;;-148.33;100.00
51829;BME280;37881;48.024;8.774;2022-08-21T05:15:13;65374.31;;;-148.33;100.00
51829;BME280;37881;48.024;8.774;2022-08-21T05:17:40;65374.31;;;-148.33;100.00
51829;BME280;37881;48.024;8.774;2022-08-21T05:20:09;65374.31;;;-148.33;100.00
51829;BME280;37881;48.024;8.774;2022-08-21T05:22:37;65374.31;;;-148.33;100.00
51829;BME280;37881;48.024;8.774;2022-08-21T05:25:06;65374.31;;;-148.33;100.00
51829;BME280;37881;48.024;8.774;2022-08-21T05:27:37;65374.31;;;-148.33;100.00
51829;BME280;37881;48.024;8.774;2022-08-21T05:30:08;65374.31;;;-148.33;100.00
51829;BME280;37881;48.024;8.774;2022-08-21T05:32:36;65374.31;;;-148.33;100.00
51829;BME280;37881;48.024;8.774;2022-08-21T05:35:04;65374.31;;;-148.33;100.00
51829;BME280;37881;48.024;8.774;2022-08-21T05:37:32;65374.31;;;-148.33;100.00
51829;BME280;37881;48.024;8.774;2022-08-21T05:39:59;65374.31;;;-148.33;100.00
51829;BME280;37881;48.024;8.774;2022-08-21T05:42:46;65374.31;;;-148.33;100.00
51829;BME280;37881;48.024;8.774;2022-08-21T05:45:28;65374.31;;;-148.33;100.00
51829;BME280;37881;48.024;8.774;2022-08-21T05:48:15;65374.31;;;-148.33;100.00
51829;BME280;37881;48.024;8.774;2022-08-21T05:50:43;65374.31;;;-148.33;100.00
51829;BME280;37881;48.024;8.774;2022-08-21T05:53:11;65374.31;;;-148.33;100.00
51829;BME280;37881;48.024;8.774;2022-08-21T05:55:38;65374.31;;;-148.33;100.00
51829;BME280;37881;48.024;8.774;2022-08-21T05:58:17;65374.31;;;-148.33;100.00
51829;BME280;37881;48.024;8.774;2022-08-21T06:00:46;65374.31;;;-148.33;100.00
51829;BME280;37881;48.024;8.774;2022-08-21T06:03:23;65374.31;;;-148.33;100.00
51829;BME280;37881;48.024;8.774;2022-08-21T06:05:51;65374.31;;;-148.33;100.00
51829;BME280;37881;48.024;8.774;2022-08-21T06:08:19;65374.31;;;-148.33;100.00
51829;BME280;37881;48.024;8.774;2022-08-21T06:10:48;65374.31;;;-148.33;100.00
51829;BME280;37881;48.024;8.774;2022-08-21T06:13:16;65374.31;;;-148.33;100.00
51829;BME280;37881;48.024;8.774;2022-08-21T06:15:43;65374.31;;;-148.33;100.00
51829;BME280;37881;48.024;8.774;2022-08-21T06:18:11;65374.31;;;-148.33;100.00
51829;BME280;37881;48.024;8.774;2022-08-21T06:20:40;65374.31;;;-148.33;100.00
51829;BME280;37881;48.024;8.774;2022-08-21T06:23:07;65374.31;;;-148.33;100.00
51829;BME280;37881;48.024;8.774;2022-08-21T06:25:34;65374.31;;;-148.33;100.00
51829;BME280;37881;48.024;8.774;2022-08-21T06:28:09;65374.31;;;-148.33;100.00
51829;BME280;37881;48.024;8.774;2022-08-21T06:30:37;65374.31;;;-148.33;100.00
51829;BME280;37881;48.024;8.774;2022-08-21T06:33:05;65374.31;;;-148.33;100.00
51829;BME280;37881;48.024;8.774;2022-08-21T06:35:34;65374.31;;;-148.33;100.00
51829;BME280;37881;48.024;8.774;2022-08-21T06:38:02;65374.31;;;-148.33;100.00
51829;BME280;37881;48.024;8.774;2022-08-21T06:40:30;65374.31;;;-148.33;100.00
51829;BME280;37881;48.024;8.774;2022-08-21T06:43:12;65374.31;;;-148.33;100.00
51829;BME280;37881;48.024;8.774;2022-08-21T06:45:41;65374.31;;;-148.33;100.00
51829;BME280;37881;48.024;8.774;2022-08-21T06:48:07;65374.31;;;-148.33;100.00
51829;BME280;37881;48.024;8.774;2022-08-21T06:50:34;65374.31;;;-148.33;100.00
51829;BME280;37881;48.024;8.774;2022-08-21T06:53:08;65374.31;;;-148.33;100.00
51829;BME280;37881;48.024;8.774;2022-08-21T06:55:37;65374.31;;;-148.33;100.00
51829;BME280;37881;48.024;8.774;2022-08-21T06:58:04;65374.31;;;-148.33;100.00
51829;BME280;37881;48.024;8.774;2022-08-21T07:00:32;65374.31;;;-148.33;100.00
51829;BME280;37881;48.024;8.774;2022-08-21T07:02:59;65374.31;;;-148.33;100.00
51829;BME280;37881;48.024;8.774;2022-08-21T07:05:27;65374.31;;;-148.33;100.00
51829;BME280;37881;48.024;8.774;2022-08-21T07:07:55;65374.31;;;-148.33;100.00
51829;BME280;37881;48.024;8.774;2022-08-21T07:10:25;65374.31;;;-148.33;100.00
51829;BME280;37881;48.024;8.774;2022-08-21T07:12:53;65374.31;;;-148.33;100.00
51829;BME280;37881;48.024;8.774;2022-08-21T07:15:28;65374.31;;;-148.33;100.00
51829;BME280;37881;48.024;8.774;2022-08-21T07:17:57;65374.31;;;-148.33;100.00
51829;BME280;37881;48.024;8.774;2022-08-21T07:20:26;65374.31;;;-148.33;100.00
51829;BME280;37881;48.024;8.774;2022-08-21T07:22:53;65374.31;;;-148.33;100.00
51829;BME280;37881;48.024;8.774;2022-08-21T07:25:20;65374.31;;;-148.33;100.00
51829;BME280;37881;48.024;8.774;2022-08-21T07:27:46;65374.31;;;-148.33;100.00
51829;BME280;37881;48.024;8.774;2022-08-21T07:30:13;65374.31;;;-148.33;100.00
51829;BME280;37881;48.024;8.774;2022-08-21T07:32:40;65374.31;;;-148.33;100.00
51829;BME280;37881;48.024;8.774;2022-08-21T07:35:07;65374.31;;;-148.33;100.00
51829;BME280;37881;48.024;8.774;2022-08-21T07:37:34;65374.31;;;-148.33;100.00
51829;BME280;37881;48.024;8.774;2022-08-21T07:40:01;65374.31;;;-148.33;100.00
51829;BME280;37881;48.024;8.774;2022-08-21T07:42:27;65374.31;;;-148.33;100.00
51829;BME280;37881;48.024;8.774;2022-08-21T07:44:55;65374.31;;;-148.33;100.00
51829;BME280;37881;48.024;8.774;2022-08-21T07:47:22;65374.31;;;-148.33;100.00
51829;BME280;37881;48.024;8.774;2022-08-21T07:50:09;65374.31;;;-148.33;100.00
51829;BME280;37881;48.024;8.774;2022-08-21T07:52:38;65374.31;;;-148.33;100.00
51829;BME280;37881;48.024;8.774;2022-08-21T07:55:05;65374.31;;;-148.33;100.00
51829;BME280;37881;48.024;8.774;2022-08-21T07:57:32;65374.31;;;-148.33;100.00
51829;BME280;37881;48.024;8.774;2022-08-21T07:59:59;65374.31;;;-148.33;100.00
51829;BME280;37881;48.024;8.774;2022-08-21T08:02:28;65374.31;;;-148.33;100.00
51829;BME280;37881;48.024;8.774;2022-08-21T08:05:00;65374.31;;;-148.33;100.00
51829;BME280;37881;48.024;8.774;2022-08-21T08:07:27;65374.31;;;-148.33;100.00
51829;BME280;37881;48.024;8.774;2022-08-21T08:09:54;65374.31;;;-148.33;100.00
51829;BME280;37881;48.024;8.774;2022-08-21T08:12:22;65374.31;;;-148.33;100.00
51829;BME280;37881;48.024;8.774;2022-08-21T08:14:49;65374.31;;;-148.33;100.00
51829;BME280;37881;48.024;8.774;2022-08-21T08:17:15;65374.31;;;-148.33;100.00
51829;BME280;37881;48.024;8.774;2022-08-21T08:19:42;65374.31;;;-148.33;100.00
51829;BME280;37881;48.024;8.774;2022-08-21T08:22:18;65374.31;;;-148.33;100.00
51829;BME280;37881;48.024;8.774;2022-08-21T08:24:46;65374.31;;;-148.33;100.00
51829;BME280;37881;48.024;8.774;2022-08-21T08:27:15;65374.31;;;-148.33;100.00
51829;BME280;37881;48.024;8.774;2022-08-21T08:29:43;65374.31;;;-148.33;100.00
51829;BME280;37881;48.024;8.774;2022-08-21T08:32:10;65374.31;;;-148.33;100.00
51829;BME280;37881;48.024;8.774;2022-08-21T08:34:38;65374.31;;;-148.33;100.00
51829;BME280;37881;48.024;8.774;2022-08-21T08:37:07;65374.31;;;-148.33;100.00
51829;BME280;37881;48.024;8.774;2022-08-21T08:39:34;65374.31;;;-148.33;100.00
51829;BME280;37881;48.024;8.774;2022-08-21T08:42:26;65374.31;;;-148.33;100.00
51829;BME280;37881;48.024;8.774;2022-08-21T08:45:03;65374.31;;;-148.33;100.00
51829;BME280;37881;48.024;8.774;2022-08-21T08:47:32;65374.31;;;-148.33;100.00
51829;BME280;37881;48.024;8.774;2022-08-21T08:50:23;65374.31;;;-148.33;100.00
51829;BME280;37881;48.024;8.774;2022-08-21T08:52:57;65374.31;;;-148.33;100.00
51829;BME280;37881;48.024;8.774;2022-08-21T08:55:33;65374.31;;;-148.33;100.00
51829;BME280;37881;48.024;8.774;2022-08-21T08:58:01;65374.31;;;-148.33;100.00
51829;BME280;37881;48.024;8.774;2022-08-21T09:00:29;65374.31;;;-148.33;100.00
51829;BME280;37881;48.024;8.774;2022-08-21T09:03:00;65374.31;;;-148.33;100.00
51829;BME280;37881;48.024;8.774;2022-08-21T09:05:42;65374.31;;;-148.33;100.00
51829;BME280;37881;48.024;8.774;2022-08-21T09:08:49;65374.31;;;-148.33;100.00
51829;BME280;37881;48.024;8.774;2022-08-21T09:11:45;65374.31;;;-148.33;100.00
51829;BME280;37881;48.024;8.774;2022-08-21T09:14:40;65374.31;;;-148.33;100.00
51829;BME280;37881;48.024;8.774;2022-08-21T09:25:29;65374.31;;;-148.33;100.00
51829;BME280;37881;48.024;8.774;2022-08-21T09:27:57;65374.31;;;-148.33;100.00
51829;BME280;37881;48.024;8.774;2022-08-21T09:30:31;65374.31;;;-148.33;100.00
51829;BME280;37881;48.024;8.774;2022-08-21T09:32:58;65374.31;;;-148.33;100.00
51829;BME280;37881;48.024;8.774;2022-08-21T09:35:26;65374.31;;;-148.33;100.00
51829;BME280;37881;48.024;8.774;2022-08-21T09:37:56;65374.31;;;-148.33;100.00
51829;BME280;37881;48.024;8.774;2022-08-21T09:40:42;65374.31;;;-148.33;100.00
51829;BME280;37881;48.024;8.774;2022-08-21T09:43:18;65374.31;;;-148.33;100.00
51829;BME280;37881;48.024;8.774;2022-08-21T09:45:47;65374.31;;;-148.33;100.00
51829;BME280;37881;48.024;8.774;2022-08-21T09:48:24;65374.31;;;-148.33;100.00
51829;BME280;37881;48.024;8.774;2022-08-21T09:50:53;65374.31;;;-148.33;100.00
51829;BME280;37881;48.024;8.774;2022-08-21T09:53:24;65374.31;;;-148.33;100.00
51829;BME280;37881;48.024;8.774;2022-08-21T09:55:55;65374.31;;;-148.33;100.00
51829;BME280;37881;48.024;8.774;2022-08-21T09:58:45;65374.31;;;-148.33;100.00
51829;BME280;37881;48.024;8.774;2022-08-21T10:01:18;65374.31;;;-148.33;100.00
51829;BME280;37881;48.024;8.774;2022-08-21T10:03:48;65374.31;;;-148.33;100.00
51829;BME280;37881;48.024;8.774;2022-08-21T10:06:27;65374.31;;;-148.33;100.00
51829;BME280;37881;48.024;8.774;2022-08-21T10:09:13;65374.31;;;-148.33;100.00
51829;BME280;37881;48.024;8.774;2022-08-21T10:11:58;65374.31;;;-148.33;100.00
51829;BME280;37881;48.024;8.774;2022-08-21T10:25:52;65374.31;;;-148.33;100.00
51829;BME280;37881;48.024;8.774;2022-08-21T10:31:58;65374.31;;;-148.33;100.00
51829;BME280;37881;48.024;8.774;2022-08-21T10:34:59;65374.31;;;-148.33;100.00
51829;BME280;37881;48.024;8.774;2022-08-21T10:40:27;65374.31;;;-148.33;100.00
51829;BME280;37881;48.024;8.774;2022-08-21T10:48:51;65374.31;;;-148.33;100.00
51829;BME280;37881;48.024;8.774;2022-08-21T10:51:33;65374.31;;;-148.33;100.00
51829;BME280;37881;48.024;8.774;2022-08-21T10:54:12;65374.31;;;-148.33;100.00
51829;BME280;37881;48.024;8.774;2022-08-21T10:56:49;65374.31;;;-148.33;100.00
51829;BME280;37881;48.024;8.774;2022-08-21T10:59:30;65374.31;;;-148.33;100.00
51829;BME280;37881;48.024;8.774;2022-08-21T11:02:28;65374.31;;;-148.33;100.00
51829;BME280;37881;48.024;8.774;2022-08-21T11:05:02;65374.31;;;-148.33;100.00
51829;BME280;37881;48.024;8.774;2022-08-21T11:07:35;65374.31;;;-148.33;100.00
51829;BME280;37881;48.024;8.774;2022-08-21T11:10:10;65374.31;;;-148.33;100.00
51829;BME280;37881;48.024;8.774;2022-08-21T11:12:46;65374.31;;;-148.33;100.00
51829;BME280;37881;48.024;8.774;2022-08-21T11:15:24;65374.31;;;-148.33;100.00
51829;BME280;37881;48.024;8.774;2022-08-21T11:23:36;65374.31;;;-148.33;100.00
51829;BME280;37881;48.024;8.774;2022-08-21T11:26:13;65374.31;;;-148.33;100.00
51829;BME280;37881;48.024;8.774;2022-08-21T11:28:51;65374.31;;;-148.33;100.00
51829;BME280;37881;48.024;8.774;2022-08-21T11:45:32;65374.31;;;-148.33;100.00
51829;BME280;37881;48.024;8.774;2022-08-21T11:48:17;65374.31;;;-148.33;100.00
51829;BME280;37881;48.024;8.774;2022-08-21T11:50:50;65374.31;;;-148.33;100.00
51829;BME280;37881;48.024;8.774;2022-08-21T11:53:24;65374.31;;;-148.33;100.00
51829;BME280;37881;48.024;8.774;2022-08-21T11:56:04;65374.31;;;-148.33;100.00
51829;BME280;37881;48.024;8.774;2022-08-21T11:58:45;65374.31;;;-148.33;100.00
51829;BME280;37881;48.024;8.774;2022-08-21T12:01:16;65374.31;;;-148.33;100.00
51829;BME280;37881;48.024;8.774;2022-08-21T12:06:36;65374.31;;;-148.33;100.00
51829;BME280;37881;48.024;8.774;2022-08-21T12:17:54;65374.31;;;-148.33;100.00
51829;BME280;37881;48.024;8.774;2022-08-21T12:22:54;65374.31;;;-148.33;100.00
51829;BME280;37881;48.024;8.774;2022-08-21T12:25:22;65374.31;;;-148.33;100.00
51829;BME280;37881;48.024;8.774;2022-08-21T12:27:53;65374.31;;;-148.33;100.00
51829;BME280;37881;48.024;8.774;2022-08-21T12:33:00;65374.31;;;-148.33;100.00
51829;BME280;37881;48.024;8.774;2022-08-21T12:35:36;65374.31;;;-148.33;100.00
51829;BME280;37881;48.024;8.774;2022-08-21T12:38:29;65374.31;;;-148.33;100.00
51829;BME280;37881;48.024;8.774;2022-08-21T12:41:06;65374.31;;;-148.33;100.00
51829;BME280;37881;48.024;8.774;2022-08-21T12:43:43;65374.31;;;-148.33;100.00
51829;BME280;37881;48.024;8.774;2022-08-21T12:46:25;65374.31;;;-148.33;100.00
51829;BME280;37881;48.024;8.774;2022-08-21T12:49:01;65374.31;;;-148.33;100.00
51829;BME280;37881;48.024;8.774;2022-08-21T12:51:46;65374.31;;;-148.33;100.00
51829;BME280;37881;48.024;8.774;2022-08-21T12:54:26;65374.31;;;-148.33;100.00
51829;BME280;37881;48.024;8.774;2022-08-21T12:57:18;65374.31;;;-148.33;100.00
51829;BME280;37881;48.024;8.774;2022-08-21T12:59:52;65374.31;;;-148.33;100.00
51829;BME280;37881;48.024;8.774;2022-08-21T13:02:23;65374.31;;;-148.33;100.00
51829;BME280;37881;48.024;8.774;2022-08-21T13:04:52;65374.31;;;-148.33;100.00
51829;BME280;37881;48.024;8.774;2022-08-21T13:07:25;65374.31;;;-148.33;100.00
51829;BME280;37881;48.024;8.774;2022-08-21T13:09:56;65374.31;;;-148.33;100.00
51829;BME280;37881;48.024;8.774;2022-08-21T13:12:25;65374.31;;;-148.33;100.00
51829;BME280;37881;48.024;8.774;2022-08-21T13:15:02;65374.31;;;-148.33;100.00
51829;BME280;37881;48.024;8.774;2022-08-21T13:17:37;65374.31;;;-148.33;100.00
51829;BME280;37881;48.024;8.774;2022-08-21T13:20:30;65374.31;;;-148.33;100.00
51829;BME280;37881;48.024;8.774;2022-08-21T13:22:55;65374.31;;;-148.33;100.00
51829;BME280;37881;48.024;8.774;2022-08-21T13:25:26;65374.31;;;-148.33;100.00
51829;BME280;37881;48.024;8.774;2022-08-21T13:28:05;65374.31;;;-148.33;100.00
51829;BME280;37881;48.024;8.774;2022-08-21T13:30:33;65374.31;;;-148.33;100.00
51829;BME280;37881;48.024;8.774;2022-08-21T13:33:03;65374.31;;;-148.33;100.00
51829;BME280;37881;48.024;8.774;2022-08-21T13:35:59;65374.31;;;-148.33;100.00
51829;BME280;37881;48.024;8.774;2022-08-21T13:38:33;65374.31;;;-148.33;100.00
51829;BME280;37881;48.024;8.774;2022-08-21T13:43:33;65374.31;;;-148.33;100.00
51829;BME280;37881;48.024;8.774;2022-08-21T13:46:07;65374.31;;;-148.33;100.00
51829;BME280;37881;48.024;8.774;2022-08-21T13:48:37;65374.31;;;-148.33;100.00
51829;BME280;37881;48.024;8.774;2022-08-21T13:51:05;65374.31;;;-148.33;100.00
51829;BME280;37881;48.024;8.774;2022-08-21T13:53:44;65374.31;;;-148.33;100.00
51829;BME280;37881;48.024;8.774;2022-08-21T13:56:33;65374.31;;;-148.33;100.00
51829;BME280;37881;48.024;8.774;2022-08-21T13:59:00;65374.31;;;-148.33;100.00
51829;BME280;37881;48.024;8.774;2022-08-21T14:01:32;65374.31;;;-148.33;100.00
51829;BME280;37881;48.024;8.774;2022-08-21T14:04:07;65374.31;;;-148.33;100.00
51829;BME280;37881;48.024;8.774;2022-08-21T14:06:38;65374.31;;;-148.33;100.00